createdAt,value
2019-04-26T00:00:47.962Z,72.37
2019-04-26T00:03:22.234Z,72.67
2019-04-26T00:05:52.130Z,72.76
2019-04-26T00:08:22.678Z,72.76
2019-04-26T00:11:05.946Z,72.71
2019-04-26T00:13:58.074Z,72.91
2019-04-26T00:16:35.971Z,73.05
2019-04-26T00:19:06.125Z,72.91
2019-04-26T00:21:36.442Z,73.01
2019-04-26T00:24:06.486Z,72.40
2019-04-26T00:26:36.635Z,73.50
2019-04-26T00:29:06.893Z,73.50
2019-04-26T00:31:36.715Z,73.31
2019-04-26T00:34:07.526Z,73.31
2019-04-26T00:36:37.337Z,73.15
2019-04-26T00:39:07.860Z,73.05
2019-04-26T00:41:38.276Z,73.05
2019-04-26T00:44:08.063Z,73.23
2019-04-26T00:46:38.296Z,72.83
2019-04-26T00:49:08.415Z,72.77
2019-04-26T00:51:38.153Z,72.77
2019-04-26T00:54:08.030Z,72.01
2019-04-26T00:56:37.813Z,72.59
2019-04-26T00:59:07.998Z,71.81
2019-04-26T01:01:40.398Z,72.46
2019-04-26T01:04:10.579Z,72.46
2019-04-26T01:06:42.374Z,72.77
2019-04-26T01:09:12.126Z,72.77
2019-04-26T01:11:42.368Z,72.67
2019-04-26T01:14:12.071Z,72.87
2019-04-26T01:16:41.912Z,72.54
2019-04-26T01:19:11.714Z,72.97
2019-04-26T01:21:47.598Z,72.97
2019-04-26T01:24:18.293Z,72.51
2019-04-26T01:26:48.982Z,73.28
2019-04-26T01:29:19.574Z,72.67
2019-04-26T01:32:02.978Z,72.67
2019-04-26T01:34:32.856Z,71.80
2019-04-26T01:37:03.145Z,71.80
2019-04-26T01:39:34.105Z,72.35
2019-04-26T01:42:11.502Z,71.75
2019-04-26T01:45:05.595Z,72.65
2019-04-26T01:47:35.961Z,72.65
2019-04-26T01:50:06.054Z,72.73
2019-04-26T01:52:35.890Z,73.07
2019-04-26T01:55:05.756Z,73.07
2019-04-26T01:57:35.497Z,73.36
2019-04-26T02:00:27.625Z,72.77
2019-04-26T02:03:00.614Z,73.03
2019-04-26T02:05:30.585Z,73.88
2019-04-26T02:08:00.513Z,73.88
2019-04-26T02:10:30.746Z,73.36
2019-04-26T02:13:00.992Z,72.88
2019-04-26T02:15:33.469Z,73.57
2019-04-26T02:18:03.809Z,73.41
2019-04-26T02:21:26.360Z,73.78
2019-04-26T02:24:06.813Z,74.17
2019-04-26T02:26:38.763Z,75.01
2019-04-26T02:29:19.223Z,75.01
2019-04-26T02:31:51.970Z,74.56
2019-04-26T02:34:21.623Z,74.56
2019-04-26T02:36:57.961Z,74.52
2019-04-26T02:39:24.167Z,74.03
2019-04-26T02:41:55.564Z,73.64
2019-04-26T02:44:29.113Z,74.70
2019-04-26T02:47:23.640Z,74.70
2019-04-26T02:49:53.454Z,73.09
2019-04-26T02:52:35.195Z,73.09
2019-04-26T02:55:11.150Z,73.52
2019-04-26T02:57:51.481Z,75.26
2019-04-26T03:00:21.532Z,74.96
2019-04-26T03:02:59.484Z,74.65
2019-04-26T03:05:30.434Z,74.63
2019-04-26T03:08:17.665Z,74.63
2019-04-26T03:11:18.162Z,75.13
2019-04-26T03:14:05.923Z,75.16
2019-04-26T03:16:56.457Z,75.16
2019-04-26T03:19:43.790Z,74.98
2019-04-26T03:22:42.690Z,75.39
2019-04-26T03:25:54.102Z,75.56
2019-04-26T03:28:40.125Z,75.56
2019-04-26T03:31:19.444Z,75.49
2019-04-26T03:34:08.012Z,74.75
2019-04-26T03:37:32.556Z,77.28
2019-04-26T03:40:20.723Z,77.36
2019-04-26T03:43:04.169Z,77.36
2019-04-26T03:46:16.244Z,78.02
2019-04-26T03:48:59.572Z,78.32
2019-04-26T03:51:48.865Z,78.64
2019-04-26T03:54:22.078Z,78.64
2019-04-26T03:57:22.037Z,77.53
2019-04-26T04:00:39.311Z,76.69
2019-04-26T04:03:45.496Z,76.69
2019-04-26T04:06:18.450Z,77.77
2019-04-26T04:08:53.859Z,77.47
2019-04-26T04:11:27.634Z,77.09
2019-04-26T04:14:09.158Z,77.09
2019-04-26T04:17:24.741Z,77.20
2019-04-26T04:20:28.133Z,76.83
2019-04-26T04:23:06.127Z,76.93
2019-04-26T04:25:40.044Z,77.17
2019-04-26T04:28:33.605Z,77.17
2019-04-26T04:31:29.163Z,76.91
2019-04-26T04:34:23.665Z,76.91
2019-04-26T04:36:53.946Z,76.94
2019-04-26T04:39:44.853Z,76.94
2019-04-26T04:42:35.578Z,77.19
2019-04-26T04:45:58.733Z,77.19
2019-04-26T04:48:46.426Z,75.66
2019-04-26T04:51:46.905Z,76.69
2019-04-26T04:54:19.669Z,77.75
2019-04-26T04:57:16.627Z,77.75
2019-04-26T05:00:34.220Z,77.43
2019-04-26T05:03:34.315Z,78.35
2019-04-26T05:06:49.272Z,79.72
2019-04-26T05:09:27.848Z,79.72
2019-04-26T05:12:09.802Z,80.95
2019-04-26T05:14:50.133Z,80.95
2019-04-26T05:17:37.093Z,81.09
2019-04-26T05:20:30.146Z,81.09
2019-04-26T05:23:47.216Z,80.73
2019-04-26T05:26:47.488Z,80.98
2019-04-26T05:30:22.697Z,80.98
2019-04-26T05:33:34.676Z,81.46
2019-04-26T05:36:54.772Z,81.46
2019-04-26T05:39:57.495Z,81.11
2019-04-26T05:43:02.864Z,81.05
2019-04-26T05:46:04.776Z,79.41
2019-04-26T05:49:34.543Z,79.98
2019-04-26T05:53:03.609Z,80.22
2019-04-26T05:56:19.960Z,81.17
2019-04-26T05:59:17.139Z,81.17
2019-04-26T06:02:39.134Z,82.11
2019-04-26T06:05:37.727Z,81.42
2019-04-26T06:08:35.030Z,82.63
2019-04-26T06:11:10.529Z,81.93
2019-04-26T06:14:19.925Z,81.93
2019-04-26T06:17:33.611Z,82.70
2019-04-26T06:20:24.500Z,81.69
2019-04-26T06:23:16.765Z,81.64
2019-04-26T06:26:02.933Z,81.50
2019-04-26T06:29:05.306Z,81.50
2019-04-26T06:32:02.586Z,81.40
2019-04-26T06:35:08.851Z,80.77
2019-04-26T06:37:50.650Z,80.77
2019-04-26T06:40:58.486Z,79.23
2019-04-26T06:43:36.340Z,80.07
2019-04-26T06:46:49.744Z,80.07
2019-04-26T06:49:50.506Z,79.31
2019-04-26T06:52:22.092Z,79.56
2019-04-26T06:55:09.811Z,80.59
2019-04-26T06:58:13.191Z,80.09
2019-04-26T07:01:21.382Z,79.62
2019-04-26T07:04:10.112Z,79.82
2019-04-26T07:06:49.786Z,80.22
2019-04-26T07:09:19.386Z,80.22
2019-04-26T07:12:41.552Z,79.65
2019-04-26T07:15:46.695Z,79.65
2019-04-26T07:18:49.156Z,79.75
2019-04-26T07:21:38.163Z,79.07
2019-04-26T07:25:03.618Z,78.07
2019-04-26T07:28:12.394Z,80.33
2019-04-26T07:30:51.380Z,80.33
2019-04-26T07:33:48.082Z,79.49
2019-04-26T07:37:00.208Z,78.86
2019-04-26T07:39:50.388Z,78.86
2019-04-26T07:43:09.077Z,80.06
2019-04-26T07:46:19.121Z,80.07
2019-04-26T07:49:30.699Z,80.68
2019-04-26T07:52:25.606Z,80.68
2019-04-26T07:55:38.974Z,79.42
2019-04-26T07:59:13.466Z,79.80
2019-04-26T08:02:18.591Z,79.80
2019-04-26T08:04:54.956Z,80.15
2019-04-26T08:07:25.221Z,79.21
2019-04-26T08:10:07.846Z,79.16
2019-04-26T08:12:37.931Z,78.41
2019-04-26T08:15:27.789Z,78.97
2019-04-26T08:18:05.521Z,78.22
2019-04-26T08:20:50.658Z,78.22
2019-04-26T08:23:38.546Z,76.93
2019-04-26T08:26:01.078Z,75.50
2019-04-26T08:28:31.614Z,75.50
2019-04-26T08:31:04.648Z,76.61
2019-04-26T08:33:48.292Z,75.88
2019-04-26T08:36:15.004Z,75.60
2019-04-26T08:38:52.602Z,73.26
2019-04-26T08:41:21.506Z,73.88
2019-04-26T08:44:19.651Z,74.24
2019-04-26T08:47:13.899Z,73.83
2019-04-26T08:49:58.305Z,73.83
2019-04-26T08:52:30.854Z,72.67
2019-04-26T08:55:00.921Z,72.67
2019-04-26T08:57:32.991Z,71.89
2019-04-26T09:00:02.864Z,72.05
2019-04-26T09:02:52.257Z,72.05
2019-04-26T09:05:45.637Z,72.14
2019-04-26T09:08:15.646Z,71.40
2019-04-26T09:10:46.512Z,71.40
2019-04-26T09:13:16.331Z,71.03
2019-04-26T09:16:02.760Z,70.97
2019-04-26T09:18:43.195Z,70.15
2019-04-26T09:21:07.515Z,70.74
2019-04-26T09:24:11.342Z,71.57
2019-04-26T09:26:49.635Z,71.20
2019-04-26T09:29:32.111Z,70.61
2019-04-26T09:32:10.376Z,70.55
2019-04-26T09:34:41.414Z,68.72
2019-04-26T09:37:13.800Z,70.74
2019-04-26T09:39:43.470Z,69.19
2019-04-26T09:42:22.899Z,69.19
2019-04-26T09:45:02.111Z,69.87
2019-04-26T09:47:39.794Z,67.87
2019-04-26T09:50:17.708Z,68.95
2019-04-26T09:52:50.001Z,68.95
2019-04-26T09:55:19.562Z,68.80
2019-04-26T09:57:53.452Z,68.80
2019-04-26T10:00:28.439Z,69.58
2019-04-26T10:02:58.338Z,69.58
2019-04-26T10:05:28.217Z,68.37
2019-04-26T10:08:04.655Z,69.84
2019-04-26T10:10:37.716Z,68.97
2019-04-26T10:13:31.900Z,69.70
2019-04-26T10:16:23.149Z,69.70
2019-04-26T10:18:58.338Z,68.15
2019-04-26T10:21:28.386Z,68.15
2019-04-26T10:23:58.335Z,68.40
2019-04-26T10:26:29.540Z,68.40
2019-04-26T10:28:59.350Z,68.28
2019-04-26T10:31:30.041Z,68.06
2019-04-26T10:33:59.748Z,67.49
2019-04-26T10:36:31.411Z,68.14
2019-04-26T10:39:02.419Z,67.95
2019-04-26T10:41:32.628Z,67.25
2019-04-26T10:44:02.258Z,67.25
2019-04-26T10:46:31.811Z,66.75
2019-04-26T10:49:08.894Z,67.16
2019-04-26T10:51:41.888Z,67.91
2019-04-26T10:54:18.334Z,67.91
2019-04-26T10:57:00.220Z,67.00
2019-04-26T11:00:01.316Z,66.94
2019-04-26T11:02:31.606Z,66.94
2019-04-26T11:05:01.839Z,66.70
2019-04-26T11:07:42.758Z,65.65
2019-04-26T11:10:12.793Z,65.65
2019-04-26T11:12:43.343Z,65.43
2019-04-26T11:15:14.746Z,64.75
2019-04-26T11:17:46.017Z,63.53
2019-04-26T11:20:24.185Z,63.53
2019-04-26T11:22:53.940Z,64.11
2019-04-26T11:25:24.632Z,62.71
2019-04-26T11:27:55.119Z,61.98
2019-04-26T11:30:24.950Z,61.81
2019-04-26T11:32:54.783Z,61.21
2019-04-26T11:35:24.719Z,61.35
2019-04-26T11:37:56.653Z,61.35
2019-04-26T11:40:26.651Z,60.61
2019-04-26T11:42:56.201Z,60.37
2019-04-26T11:45:25.635Z,58.70
2019-04-26T11:47:58.214Z,59.52
2019-04-26T11:50:27.836Z,58.49
2019-04-26T11:52:57.458Z,58.65
2019-04-26T11:55:31.474Z,58.97
2019-04-26T11:58:01.572Z,58.97
2019-04-26T12:00:36.189Z,57.85
2019-04-26T12:03:06.305Z,57.83
2019-04-26T12:05:54.942Z,57.83
2019-04-26T12:08:37.649Z,58.35
2019-04-26T12:11:17.828Z,56.46
2019-04-26T12:13:39.706Z,57.06
2019-04-26T12:16:14.605Z,56.58
2019-04-26T12:18:44.154Z,56.58
2019-04-26T12:21:14.935Z,55.88
2019-04-26T12:23:45.240Z,56.95
2019-04-26T12:26:17.331Z,56.59
2019-04-26T12:28:46.083Z,57.71
2019-04-26T12:31:16.088Z,57.71
2019-04-26T12:33:46.269Z,56.90
2019-04-26T12:36:16.137Z,56.17
2019-04-26T12:38:46.986Z,55.90
2019-04-26T12:41:17.196Z,55.90
2019-04-26T12:43:48.410Z,55.07
2019-04-26T12:46:29.079Z,54.86
2019-04-26T12:48:59.767Z,54.86
2019-04-26T12:51:29.348Z,55.47
2019-04-26T12:53:59.466Z,57.45
2019-04-26T12:56:31.224Z,55.94
2019-04-26T12:59:02.719Z,55.89
2019-04-26T13:01:34.652Z,55.89
2019-04-26T13:04:08.060Z,55.00
2019-04-26T13:06:44.140Z,54.62
2019-04-26T13:09:15.114Z,55.63
2019-04-26T13:12:12.599Z,53.92
2019-04-26T13:15:19.648Z,54.12
2019-04-26T13:17:58.257Z,54.12
2019-04-26T13:20:28.733Z,54.18
2019-04-26T13:23:02.171Z,54.31
2019-04-26T13:25:40.232Z,53.82
2019-04-26T13:28:06.542Z,52.60
2019-04-26T13:30:40.073Z,51.20
2019-04-26T13:33:22.899Z,51.20
2019-04-26T13:36:02.567Z,51.82
2019-04-26T13:38:26.312Z,50.46
2019-04-26T13:40:59.836Z,50.46
2019-04-26T13:43:28.760Z,51.81
2019-04-26T13:46:23.682Z,51.22
2019-04-26T13:49:18.022Z,51.84
2019-04-26T13:51:48.509Z,51.84
2019-04-26T13:54:21.093Z,50.99
2019-04-26T13:56:50.299Z,50.58
2019-04-26T13:59:22.023Z,50.58
2019-04-26T14:01:53.556Z,51.11
2019-04-26T14:04:23.272Z,50.41
2019-04-26T14:06:54.178Z,49.76
2019-04-26T14:09:23.876Z,49.76
2019-04-26T14:11:53.455Z,49.86
2019-04-26T14:14:23.370Z,49.86
2019-04-26T14:16:55.787Z,49.63
2019-04-26T14:19:25.598Z,50.88
2019-04-26T14:21:55.423Z,50.11
2019-04-26T14:24:56.887Z,50.11
2019-04-26T14:27:35.182Z,49.74
2019-04-26T14:30:06.755Z,50.83
2019-04-26T14:32:38.458Z,52.65
2019-04-26T14:35:11.423Z,52.31
2019-04-26T14:37:39.713Z,50.44
2019-04-26T14:40:17.155Z,50.59
2019-04-26T14:42:47.073Z,49.88
2019-04-26T14:45:23.142Z,48.89
2019-04-26T14:47:47.930Z,48.89
2019-04-26T14:50:17.716Z,47.84
2019-04-26T14:52:47.371Z,48.17
2019-04-26T14:55:21.332Z,46.71
2019-04-26T14:57:51.295Z,46.55
2019-04-26T15:00:25.150Z,46.55
2019-04-26T15:03:20.865Z,46.33
2019-04-26T15:06:07.474Z,46.28
2019-04-26T15:08:40.549Z,45.69
2019-04-26T15:11:13.773Z,45.69
2019-04-26T15:13:46.978Z,44.88
2019-04-26T15:16:16.705Z,45.50
2019-04-26T15:18:46.406Z,45.05
2019-04-26T15:21:16.176Z,45.05
2019-04-26T15:23:46.212Z,45.31
2019-04-26T15:26:24.289Z,43.12
2019-04-26T15:28:52.085Z,42.57
2019-04-26T15:31:24.873Z,42.07
2019-04-26T15:33:55.154Z,42.85
2019-04-26T15:36:24.888Z,42.85
2019-04-26T15:38:55.750Z,41.74
2019-04-26T15:41:50.756Z,41.74
2019-04-26T15:44:39.064Z,43.86
2019-04-26T15:47:24.749Z,43.86
2019-04-26T15:50:10.892Z,43.40
2019-04-26T15:52:42.360Z,44.09
2019-04-26T15:55:13.359Z,44.09
2019-04-26T15:57:43.342Z,44.17
2019-04-26T16:00:15.186Z,44.17
2019-04-26T16:02:44.797Z,44.81
2019-04-26T16:05:16.569Z,44.94
2019-04-26T16:07:50.131Z,44.94
2019-04-26T16:10:17.230Z,44.82
2019-04-26T16:12:49.503Z,44.82
2019-04-26T16:15:18.970Z,45.27
2019-04-26T16:17:49.957Z,43.66
2019-04-26T16:20:19.586Z,43.15
2019-04-26T16:22:49.928Z,43.15
2019-04-26T16:25:19.768Z,43.60
2019-04-26T16:27:50.870Z,43.44
2019-04-26T16:30:37.666Z,43.56
2019-04-26T16:33:13.097Z,43.56
2019-04-26T16:35:43.144Z,43.39
2019-04-26T16:38:40.468Z,43.39
2019-04-26T16:41:10.083Z,44.12
2019-04-26T16:43:52.160Z,44.35
2019-04-26T16:46:20.354Z,44.35
2019-04-26T16:48:47.962Z,44.26
2019-04-26T16:51:19.800Z,44.26
2019-04-26T16:54:05.412Z,45.88
2019-04-26T16:56:25.762Z,45.91
2019-04-26T16:58:54.920Z,45.91
2019-04-26T17:01:23.467Z,45.88
2019-04-26T17:03:53.915Z,46.27
2019-04-26T17:06:24.745Z,46.46
2019-04-26T17:09:01.180Z,46.46
2019-04-26T17:11:30.316Z,46.36
2019-04-26T17:14:04.086Z,46.86
2019-04-26T17:16:33.594Z,46.86
2019-04-26T17:19:04.376Z,47.29
2019-04-26T17:21:40.602Z,48.39
2019-04-26T17:24:38.086Z,47.99
2019-04-26T17:27:11.372Z,47.68
2019-04-26T17:29:47.155Z,49.28
2019-04-26T17:32:17.702Z,48.91
2019-04-26T17:34:49.083Z,48.91
2019-04-26T17:37:21.822Z,50.21
2019-04-26T17:39:55.413Z,50.21
2019-04-26T17:42:29.763Z,49.01
2019-04-26T17:45:06.835Z,49.45
2019-04-26T17:47:37.568Z,50.55
2019-04-26T17:50:06.827Z,50.55
2019-04-26T17:52:38.205Z,51.40
2019-04-26T17:55:11.863Z,51.40
2019-04-26T17:57:42.342Z,51.81
2019-04-26T18:00:15.237Z,52.84
2019-04-26T18:02:48.021Z,52.20
2019-04-26T18:05:15.142Z,52.76
2019-04-26T18:07:58.351Z,53.57
2019-04-26T18:10:24.773Z,54.10
2019-04-26T18:12:54.736Z,54.10
2019-04-26T18:15:25.436Z,55.87
2019-04-26T18:18:17.391Z,57.17
2019-04-26T18:21:13.015Z,57.17
2019-04-26T18:23:54.705Z,56.74
2019-04-26T18:26:26.382Z,58.09
2019-04-26T18:29:01.125Z,58.09
2019-04-26T18:31:33.599Z,58.50
2019-04-26T18:34:05.526Z,60.80
2019-04-26T18:36:38.862Z,60.29
2019-04-26T18:39:10.157Z,61.88
2019-04-26T18:41:40.282Z,62.16
2019-04-26T18:44:16.301Z,62.16
2019-04-26T18:46:56.324Z,64.41
2019-04-26T18:49:28.847Z,64.41
2019-04-26T18:52:01.059Z,64.10
2019-04-26T18:54:54.300Z,64.47
2019-04-26T18:57:25.611Z,65.00
2019-04-26T19:00:01.666Z,65.00
2019-04-26T19:02:33.298Z,65.70
2019-04-26T19:05:07.774Z,65.25
2019-04-26T19:07:38.169Z,65.31
2019-04-26T19:10:12.087Z,66.29
2019-04-26T19:12:43.667Z,66.42
2019-04-26T19:15:33.647Z,65.57
2019-04-26T19:18:17.367Z,65.57
2019-04-26T19:21:11.629Z,65.36
2019-04-26T19:23:41.616Z,66.64
2019-04-26T19:26:13.644Z,66.11
2019-04-26T19:28:50.447Z,66.74
2019-04-26T19:31:23.950Z,66.74
2019-04-26T19:33:56.119Z,66.09
2019-04-26T19:36:29.320Z,66.52
2019-04-26T19:38:58.889Z,66.52
2019-04-26T19:41:31.875Z,65.84
2019-04-26T19:44:08.379Z,67.47
2019-04-26T19:47:06.637Z,67.59
2019-04-26T19:50:03.217Z,66.27
2019-04-26T19:52:46.200Z,67.57
2019-04-26T19:55:47.372Z,67.12
2019-04-26T19:58:20.471Z,67.12
2019-04-26T20:00:49.145Z,66.92
2019-04-26T20:03:18.908Z,68.27
2019-04-26T20:05:49.335Z,68.27
2019-04-26T20:08:21.544Z,69.20
2019-04-26T20:10:53.361Z,67.44
2019-04-26T20:13:23.168Z,67.44
2019-04-26T20:15:57.322Z,67.92
2019-04-26T20:18:28.498Z,67.83
2019-04-26T20:20:59.045Z,67.83
2019-04-26T20:23:33.879Z,68.71
2019-04-26T20:26:07.086Z,68.71
2019-04-26T20:28:38.318Z,68.06
2019-04-26T20:31:19.675Z,68.14
2019-04-26T20:33:49.651Z,68.14
2019-04-26T20:36:19.281Z,68.71
2019-04-26T20:38:49.500Z,69.78
2019-04-26T20:41:19.773Z,69.52
2019-04-26T20:44:03.084Z,68.88
2019-04-26T20:46:25.091Z,68.88
2019-04-26T20:49:01.434Z,69.79
2019-04-26T20:51:34.494Z,69.47
2019-04-26T20:54:06.118Z,69.21
2019-04-26T20:56:36.383Z,69.56
2019-04-26T20:59:06.163Z,69.17
2019-04-26T21:01:35.903Z,69.17
2019-04-26T21:04:07.020Z,69.41
2019-04-26T21:06:37.012Z,69.64
2019-04-26T21:09:09.029Z,69.40
2019-04-26T21:11:38.902Z,69.32
2019-04-26T21:14:09.074Z,69.55
2019-04-26T21:16:38.904Z,69.42
2019-04-26T21:19:12.759Z,70.06
2019-04-26T21:21:41.994Z,70.06
2019-04-26T21:24:19.939Z,70.06
2019-04-26T21:27:05.243Z,69.71
2019-04-26T21:30:06.446Z,69.71
2019-04-26T21:32:58.958Z,69.90
2019-04-26T21:35:30.186Z,70.08
2019-04-26T21:38:07.222Z,69.30
2019-04-26T21:40:48.506Z,69.34
2019-04-26T21:43:18.772Z,69.34
2019-04-26T21:45:48.791Z,70.07
2019-04-26T21:48:19.062Z,70.07
2019-04-26T21:50:49.525Z,69.90
2019-04-26T21:53:19.260Z,69.57
2019-04-26T21:55:49.067Z,69.57
2019-04-26T21:58:19.141Z,70.68
2019-04-26T22:01:06.451Z,70.44
2019-04-26T22:03:36.188Z,70.59
2019-04-26T22:06:06.664Z,70.59
2019-04-26T22:08:39.145Z,71.26
2019-04-26T22:11:09.127Z,71.40
2019-04-26T22:13:47.147Z,71.35
2019-04-26T22:16:34.112Z,71.35
2019-04-26T22:19:21.573Z,72.01
2019-04-26T22:22:10.162Z,72.34
2019-04-26T22:24:40.249Z,72.65
2019-04-26T22:27:10.380Z,72.64
2019-04-26T22:29:40.149Z,72.64
2019-04-26T22:32:11.455Z,73.11
2019-04-26T22:34:44.876Z,73.56
2019-04-26T22:37:23.162Z,73.56
2019-04-26T22:39:46.207Z,73.53
2019-04-26T22:42:16.759Z,73.49
2019-04-26T22:45:09.507Z,73.75
2019-04-26T22:47:45.416Z,73.75
2019-04-26T22:50:20.920Z,74.09
2019-04-26T22:52:51.526Z,74.09
2019-04-26T22:55:24.041Z,74.18
2019-04-26T22:57:50.673Z,74.13
2019-04-26T23:00:25.608Z,74.33
2019-04-26T23:02:53.350Z,74.14
2019-04-26T23:05:23.327Z,74.14
2019-04-26T23:07:54.687Z,73.44
2019-04-26T23:10:31.202Z,74.40
2019-04-26T23:13:24.111Z,73.98
2019-04-26T23:16:11.457Z,73.43
2019-04-26T23:18:53.634Z,73.43
2019-04-26T23:21:26.369Z,74.20
2019-04-26T23:23:56.004Z,74.32
2019-04-26T23:26:26.072Z,74.56
2019-04-26T23:28:55.841Z,73.66
2019-04-26T23:31:25.963Z,74.20
2019-04-26T23:33:55.779Z,74.20
2019-04-26T23:36:25.521Z,73.87
2019-04-26T23:38:55.729Z,74.14
2019-04-26T23:41:26.048Z,73.92
2019-04-26T23:44:02.510Z,73.40
2019-04-26T23:46:28.032Z,73.23
2019-04-26T23:48:57.800Z,73.23
2019-04-26T23:51:27.885Z,74.24
2019-04-26T23:53:57.973Z,74.18
2019-04-26T23:56:27.751Z,74.85
2019-04-26T23:58:57.943Z,74.61
